createdAt,value
2019-04-29T00:01:02.887Z,5.80
2019-04-29T00:03:32.500Z,5.20
2019-04-29T00:06:02.041Z,5.40
2019-04-29T00:08:32.052Z,5.03
2019-04-29T00:11:01.600Z,5.60
2019-04-29T00:13:31.068Z,5.60
2019-04-29T00:16:07.894Z,5.63
2019-04-29T00:18:56.459Z,5.63
2019-04-29T00:21:26.254Z,6.30
2019-04-29T00:24:03.648Z,4.80
2019-04-29T00:26:27.111Z,6.27
2019-04-29T00:28:56.972Z,6.00
2019-04-29T00:31:26.669Z,5.90
2019-04-29T00:33:56.152Z,6.03
2019-04-29T00:36:27.963Z,6.70
2019-04-29T00:39:22.714Z,6.20
2019-04-29T00:42:10.102Z,6.27
2019-04-29T00:44:39.678Z,6.10
2019-04-29T00:47:09.405Z,7.10
2019-04-29T00:49:38.971Z,6.70
2019-04-29T00:52:08.666Z,6.17
2019-04-29T00:54:57.334Z,6.37
2019-04-29T00:57:27.286Z,5.80
2019-04-29T00:59:56.829Z,5.30
2019-04-29T01:02:26.496Z,6.97
2019-04-29T01:04:56.028Z,6.20
2019-04-29T01:07:25.814Z,9.13
2019-04-29T01:09:55.445Z,6.23
2019-04-29T01:12:25.285Z,5.73
2019-04-29T01:14:54.831Z,6.00
2019-04-29T01:17:24.939Z,7.17
2019-04-29T01:19:54.477Z,6.47
2019-04-29T01:22:24.406Z,6.67
2019-04-29T01:24:53.969Z,5.50
2019-04-29T01:27:29.197Z,6.50
2019-04-29T01:29:58.735Z,6.27
2019-04-29T01:32:28.561Z,6.90
2019-04-29T01:34:58.102Z,7.00
2019-04-29T01:37:43.136Z,7.10
2019-04-29T01:40:31.213Z,6.23
2019-04-29T01:43:00.691Z,6.30
2019-04-29T01:45:30.295Z,6.67
2019-04-29T01:47:59.851Z,7.87
2019-04-29T01:50:30.376Z,6.20
2019-04-29T01:53:00.885Z,6.40
2019-04-29T01:55:30.462Z,6.43
2019-04-29T01:58:00.094Z,5.97
2019-04-29T02:00:29.619Z,5.90
2019-04-29T02:02:59.104Z,6.20
2019-04-29T02:05:28.961Z,6.27
2019-04-29T02:07:58.425Z,6.63
2019-04-29T02:10:32.947Z,6.73
2019-04-29T02:13:02.605Z,6.17
2019-04-29T02:15:32.534Z,6.20
2019-04-29T02:18:02.276Z,6.80
2019-04-29T02:20:32.104Z,6.40
2019-04-29T02:23:25.750Z,7.17
2019-04-29T02:25:55.169Z,6.50
2019-04-29T02:28:24.701Z,6.77
2019-04-29T02:30:54.275Z,7.40
2019-04-29T02:33:23.863Z,6.50
2019-04-29T02:35:53.659Z,6.73
2019-04-29T02:38:51.706Z,6.33
2019-04-29T02:41:30.320Z,6.67
2019-04-29T02:44:01.661Z,7.17
2019-04-29T02:46:31.208Z,7.10
2019-04-29T02:49:01.019Z,7.13
2019-04-29T02:51:48.308Z,8.10
2019-04-29T02:54:18.130Z,7.40
2019-04-29T02:56:52.313Z,8.60
2019-04-29T02:59:26.736Z,8.60
2019-04-29T03:02:13.289Z,8.23
2019-04-29T03:05:01.384Z,7.33
2019-04-29T03:07:30.977Z,7.63
2019-04-29T03:10:00.534Z,7.90
2019-04-29T03:12:30.145Z,7.73
2019-04-29T03:14:59.677Z,7.97
2019-04-29T03:17:29.491Z,7.27
2019-04-29T03:20:20.014Z,7.07
2019-04-29T03:22:49.581Z,7.40
2019-04-29T03:25:19.133Z,8.23
2019-04-29T03:27:48.674Z,8.83
2019-04-29T03:30:18.509Z,8.93
2019-04-29T03:32:48.049Z,7.40
2019-04-29T03:35:18.204Z,9.30
2019-04-29T03:37:48.005Z,7.80
2019-04-29T03:40:17.855Z,7.90
2019-04-29T03:42:47.382Z,7.07
2019-04-29T03:45:16.942Z,7.97
2019-04-29T03:47:46.775Z,7.97
2019-04-29T03:50:16.328Z,8.20
2019-04-29T03:52:45.810Z,9.00
2019-04-29T03:55:16.109Z,9.80
2019-04-29T03:57:46.946Z,10.87
2019-04-29T04:00:17.778Z,10.27
2019-04-29T04:02:54.656Z,9.67
2019-04-29T04:05:33.797Z,10.10
2019-04-29T04:08:08.699Z,11.73
2019-04-29T04:10:38.256Z,13.00
2019-04-29T04:13:07.866Z,11.47
2019-04-29T04:15:37.705Z,11.30
2019-04-29T04:18:17.023Z,11.53
2019-04-29T04:20:46.572Z,12.50
2019-04-29T04:23:16.102Z,10.47
2019-04-29T04:25:45.872Z,11.33
2019-04-29T04:28:15.501Z,10.67
2019-04-29T04:30:45.203Z,11.57
2019-04-29T04:33:14.761Z,11.80
2019-04-29T04:35:44.587Z,12.13
2019-04-29T04:38:14.149Z,12.37
2019-04-29T04:40:48.067Z,9.83
2019-04-29T04:43:17.658Z,12.37
2019-04-29T04:45:47.226Z,10.67
2019-04-29T04:48:16.741Z,11.93
2019-04-29T04:50:46.283Z,12.23
2019-04-29T04:53:15.836Z,11.57
2019-04-29T04:55:46.746Z,11.70
2019-04-29T04:58:16.338Z,10.67
2019-04-29T05:00:45.983Z,12.83
2019-04-29T05:03:15.553Z,11.83
2019-04-29T05:05:45.134Z,12.93
2019-04-29T05:08:14.571Z,12.77
2019-04-29T05:10:44.047Z,12.80
2019-04-29T05:13:26.940Z,12.93
2019-04-29T05:15:44.782Z,13.23
2019-04-29T05:18:14.331Z,12.67
2019-04-29T05:20:43.876Z,11.47
2019-04-29T05:23:13.450Z,11.00
2019-04-29T05:25:42.987Z,12.37
2019-04-29T05:28:12.534Z,11.60
2019-04-29T05:30:43.452Z,14.00
2019-04-29T05:33:12.985Z,13.20
2019-04-29T05:36:01.877Z,16.33
2019-04-29T05:38:36.403Z,13.47
2019-04-29T05:41:10.165Z,11.80
2019-04-29T05:43:58.872Z,11.60
2019-04-29T05:46:34.360Z,9.87
2019-04-29T05:49:07.163Z,8.30
2019-04-29T05:51:47.374Z,7.60
2019-04-29T05:54:17.549Z,6.57
2019-04-29T05:56:47.084Z,6.53
2019-04-29T05:59:16.615Z,6.33
2019-04-29T06:01:47.177Z,6.03
2019-04-29T06:04:18.251Z,7.55
2019-04-29T06:06:47.877Z,8.18
2019-04-29T06:09:18.434Z,7.72
2019-04-29T06:11:47.993Z,7.40
2019-04-29T06:14:17.560Z,8.30
2019-04-29T06:16:48.158Z,7.70
2019-04-29T06:19:17.671Z,8.53
2019-04-29T06:21:47.124Z,9.90
2019-04-29T06:24:16.660Z,8.20
2019-04-29T06:26:46.110Z,9.05
2019-04-29T06:29:15.573Z,9.17
2019-04-29T06:31:45.374Z,9.60
2019-04-29T06:34:15.018Z,10.23
2019-04-29T06:36:44.747Z,10.93
2019-04-29T06:39:16.873Z,11.37
2019-04-29T06:41:46.969Z,10.83
2019-04-29T06:44:17.007Z,11.40
2019-04-29T06:46:50.109Z,12.70
2019-04-29T06:49:21.010Z,14.50
2019-04-29T06:51:50.554Z,12.97
2019-04-29T06:54:20.209Z,13.30
2019-04-29T06:56:49.995Z,13.33
2019-04-29T06:59:19.565Z,12.70
2019-04-29T07:01:49.111Z,13.00
2019-04-29T07:04:18.682Z,15.13
2019-04-29T07:06:57.098Z,13.17
2019-04-29T07:09:19.701Z,13.20
2019-04-29T07:11:49.188Z,13.07
2019-04-29T07:14:18.674Z,12.60
2019-04-29T07:16:48.419Z,12.57
2019-04-29T07:19:33.970Z,14.33
2019-04-29T07:22:25.575Z,14.43
2019-04-29T07:24:51.268Z,13.90
2019-04-29T07:27:21.797Z,13.47
2019-04-29T07:29:51.672Z,13.97
2019-04-29T07:32:21.219Z,14.73
2019-04-29T07:34:50.785Z,13.03
2019-04-29T07:37:20.338Z,14.30
2019-04-29T07:39:49.892Z,15.60
2019-04-29T07:42:19.550Z,14.13
2019-04-29T07:45:06.644Z,15.30
2019-04-29T07:47:37.165Z,14.70
2019-04-29T07:50:07.091Z,18.17
2019-04-29T07:52:36.645Z,18.23
2019-04-29T07:55:06.241Z,15.87
2019-04-29T07:57:35.711Z,19.63
2019-04-29T08:00:08.638Z,20.00
2019-04-29T08:02:37.072Z,19.70
2019-04-29T08:05:06.561Z,21.52
2019-04-29T08:07:36.540Z,26.47
2019-04-29T08:10:22.528Z,21.95
2019-04-29T08:12:37.922Z,19.17
2019-04-29T08:15:08.798Z,20.55
2019-04-29T08:17:38.830Z,18.30
2019-04-29T08:20:08.595Z,20.95
2019-04-29T08:22:38.290Z,19.42
2019-04-29T08:25:08.152Z,17.52
2019-04-29T08:27:40.661Z,16.25
2019-04-29T08:30:11.441Z,16.60
2019-04-29T08:32:40.057Z,16.77
2019-04-29T08:35:09.592Z,16.80
2019-04-29T08:37:39.409Z,17.37
2019-04-29T08:40:16.315Z,17.48
2019-04-29T08:42:46.757Z,18.92
2019-04-29T08:45:34.704Z,16.95
2019-04-29T08:48:05.654Z,17.55
2019-04-29T08:50:35.173Z,18.82
2019-04-29T08:53:04.901Z,19.30
2019-04-29T08:55:36.556Z,18.57
2019-04-29T08:58:06.884Z,20.88
2019-04-29T09:00:36.824Z,19.90
2019-04-29T09:03:07.622Z,17.50
2019-04-29T09:05:37.159Z,18.95
2019-04-29T09:08:06.687Z,19.48
2019-04-29T09:10:36.849Z,18.57
2019-04-29T09:13:07.375Z,18.32
2019-04-29T09:15:36.932Z,17.45
2019-04-29T09:18:06.420Z,16.00
2019-04-29T09:20:37.227Z,14.83
2019-04-29T09:23:09.793Z,16.07
2019-04-29T09:26:02.970Z,13.50
2019-04-29T09:28:29.863Z,12.03
2019-04-29T09:30:59.549Z,10.32
2019-04-29T09:33:29.129Z,10.72
2019-04-29T09:35:58.906Z,11.75
2019-04-29T09:38:28.407Z,13.85
2019-04-29T09:41:15.833Z,14.10
2019-04-29T09:44:03.952Z,14.43
2019-04-29T09:46:34.430Z,11.05
2019-04-29T09:49:05.130Z,12.13
2019-04-29T09:51:34.670Z,11.33
2019-04-29T09:54:04.148Z,13.38
2019-04-29T09:56:34.812Z,22.05
2019-04-29T09:59:22.968Z,17.65
2019-04-29T10:02:11.675Z,22.05
2019-04-29T10:04:56.264Z,19.35
2019-04-29T10:07:18.303Z,16.50
2019-04-29T10:09:56.940Z,15.85
2019-04-29T10:12:19.111Z,16.23
2019-04-29T10:14:48.670Z,14.28
2019-04-29T10:17:45.927Z,13.90
2019-04-29T10:20:33.610Z,13.50
2019-04-29T10:23:03.306Z,14.38
2019-04-29T10:25:32.984Z,13.65
2019-04-29T10:28:02.555Z,13.58
2019-04-29T10:30:32.475Z,13.05
2019-04-29T10:33:02.445Z,10.40
2019-04-29T10:35:33.240Z,10.53
2019-04-29T10:38:04.207Z,9.85
2019-04-29T10:41:00.642Z,11.65
2019-04-29T10:43:53.568Z,9.20
2019-04-29T10:46:58.011Z,11.08
2019-04-29T10:49:39.385Z,8.55
2019-04-29T10:52:08.998Z,10.72
2019-04-29T10:54:38.612Z,11.95
2019-04-29T10:57:10.471Z,9.65
2019-04-29T10:59:44.942Z,11.57
2019-04-29T11:02:24.443Z,9.75
2019-04-29T11:04:57.063Z,9.83
2019-04-29T11:07:34.515Z,10.55
2019-04-29T11:10:10.087Z,8.28
2019-04-29T11:12:39.849Z,9.58
2019-04-29T11:15:09.873Z,9.60
2019-04-29T11:17:44.643Z,10.93
2019-04-29T11:20:15.854Z,10.48
2019-04-29T11:22:48.213Z,10.40
2019-04-29T11:25:51.301Z,10.98
2019-04-29T11:28:21.259Z,13.93
2019-04-29T11:30:50.793Z,9.75
2019-04-29T11:33:27.143Z,9.90
2019-04-29T11:36:07.979Z,12.37
2019-04-29T11:38:38.410Z,11.80
2019-04-29T11:41:12.289Z,11.22
2019-04-29T11:43:39.570Z,11.30
2019-04-29T11:46:09.958Z,13.28
2019-04-29T11:48:40.550Z,9.50
2019-04-29T11:51:20.567Z,8.65
2019-04-29T11:53:50.373Z,9.90
2019-04-29T11:56:19.900Z,11.57
2019-04-29T11:58:59.869Z,10.43
2019-04-29T12:02:06.747Z,12.05
2019-04-29T12:04:55.472Z,14.55
2019-04-29T12:07:32.133Z,15.18
2019-04-29T12:10:02.364Z,16.07
2019-04-29T12:12:30.072Z,14.10
2019-04-29T12:15:17.162Z,13.70
2019-04-29T12:17:56.543Z,12.65
2019-04-29T12:20:31.091Z,12.65
2019-04-29T12:23:00.704Z,13.53
2019-04-29T12:25:30.403Z,13.48
2019-04-29T12:28:02.049Z,12.13
2019-04-29T12:30:36.394Z,11.85
2019-04-29T12:33:14.259Z,11.57
2019-04-29T12:35:52.247Z,12.80
2019-04-29T12:38:40.145Z,13.68
2019-04-29T12:41:30.365Z,14.15
2019-04-29T12:44:02.499Z,11.38
2019-04-29T12:46:53.947Z,10.32
2019-04-29T12:49:23.500Z,10.55
2019-04-29T12:51:53.017Z,12.98
2019-04-29T12:54:22.867Z,11.08
2019-04-29T12:56:52.411Z,10.18
2019-04-29T12:59:22.034Z,10.88
2019-04-29T13:02:19.973Z,9.70
2019-04-29T13:05:12.846Z,12.00
2019-04-29T13:07:59.064Z,13.58
2019-04-29T13:10:42.334Z,10.43
2019-04-29T13:13:15.773Z,12.68
2019-04-29T13:16:07.864Z,9.88
2019-04-29T13:19:10.426Z,10.53
2019-04-29T13:21:31.841Z,11.03
2019-04-29T13:24:13.736Z,11.38
2019-04-29T13:26:33.272Z,13.22
2019-04-29T13:29:03.828Z,11.43
2019-04-29T13:31:38.513Z,12.25
2019-04-29T13:34:22.899Z,13.95
2019-04-29T13:36:38.223Z,11.40
2019-04-29T13:39:08.299Z,10.88
2019-04-29T13:41:56.426Z,11.03
2019-04-29T13:44:11.349Z,9.58
2019-04-29T13:47:01.267Z,9.63
2019-04-29T13:49:37.547Z,8.23
2019-04-29T13:52:07.072Z,8.03
2019-04-29T13:54:37.366Z,9.33
2019-04-29T13:57:11.380Z,8.73
2019-04-29T13:59:49.371Z,8.28
2019-04-29T14:02:31.159Z,8.88
2019-04-29T14:05:00.284Z,10.90
2019-04-29T14:07:29.794Z,9.58
2019-04-29T14:09:59.619Z,8.95
2019-04-29T14:15:00.614Z,7.45
2019-04-29T14:17:31.823Z,10.18
2019-04-29T14:20:03.594Z,7.80
2019-04-29T14:22:33.361Z,9.28
2019-04-29T14:25:03.181Z,10.88
2019-04-29T14:27:32.807Z,11.70
2019-04-29T14:30:06.839Z,9.40
2019-04-29T14:32:38.069Z,9.55
2019-04-29T14:35:11.724Z,8.45
2019-04-29T14:37:54.569Z,9.50
2019-04-29T14:40:13.265Z,9.48
2019-04-29T14:42:57.907Z,11.38
2019-04-29T14:45:33.275Z,11.15
2019-04-29T14:48:20.651Z,11.12
2019-04-29T14:50:54.048Z,11.10
2019-04-29T14:53:24.391Z,10.32
2019-04-29T14:55:53.296Z,11.00
2019-04-29T14:58:23.121Z,10.30
2019-04-29T15:01:10.834Z,9.78
2019-04-29T15:03:55.787Z,9.10
2019-04-29T15:06:28.449Z,8.35
2019-04-29T15:08:56.969Z,7.55
2019-04-29T15:11:32.350Z,6.80
2019-04-29T15:14:23.977Z,6.62
2019-04-29T15:16:57.542Z,6.83
2019-04-29T15:19:56.088Z,6.75
2019-04-29T15:22:28.758Z,6.60
2019-04-29T15:24:58.310Z,7.15
2019-04-29T15:27:27.864Z,7.05
2019-04-29T15:29:57.362Z,6.97
2019-04-29T15:32:28.700Z,7.42
2019-04-29T15:34:58.579Z,6.35
2019-04-29T15:37:28.430Z,6.10
2019-04-29T15:39:58.550Z,6.65
2019-04-29T15:42:28.410Z,8.65
2019-04-29T15:44:57.973Z,7.10
2019-04-29T15:47:31.184Z,6.40
2019-04-29T15:50:00.706Z,6.60
2019-04-29T15:52:30.427Z,6.40
2019-04-29T15:55:00.249Z,6.42
2019-04-29T15:57:30.119Z,6.70
2019-04-29T16:00:03.714Z,6.20
2019-04-29T16:02:35.806Z,6.75
2019-04-29T16:05:14.861Z,6.70
2019-04-29T16:08:02.684Z,7.05
2019-04-29T16:10:57.963Z,7.53
2019-04-29T16:13:29.476Z,8.35
2019-04-29T16:15:59.144Z,7.67
2019-04-29T16:18:28.613Z,7.15
2019-04-29T16:20:58.366Z,9.25
2019-04-29T16:23:32.755Z,7.33
2019-04-29T16:25:59.543Z,5.92
2019-04-29T16:28:31.369Z,5.53
2019-04-29T16:31:05.202Z,6.37
2019-04-29T16:33:31.719Z,4.90
2019-04-29T16:36:04.897Z,8.50
2019-04-29T16:38:33.251Z,7.40
2019-04-29T16:41:19.587Z,5.53
2019-04-29T16:43:46.682Z,4.92
2019-04-29T16:46:24.237Z,4.87
2019-04-29T16:48:51.169Z,4.70
2019-04-29T16:51:20.880Z,5.67
2019-04-29T16:53:50.534Z,3.85
2019-04-29T16:56:20.255Z,4.37
2019-04-29T16:58:49.992Z,5.40
2019-04-29T17:01:19.825Z,3.60
2019-04-29T17:03:50.326Z,3.80
2019-04-29T17:06:20.343Z,4.00
2019-04-29T17:09:24.399Z,4.05
2019-04-29T17:11:56.144Z,5.35
2019-04-29T17:14:26.499Z,3.85
2019-04-29T17:16:56.686Z,4.22
2019-04-29T17:19:26.239Z,4.20
2019-04-29T17:22:23.350Z,6.15
2019-04-29T17:24:27.776Z,4.65
2019-04-29T17:27:12.062Z,3.87
2019-04-29T17:30:03.551Z,4.10
2019-04-29T17:32:44.249Z,3.80
2019-04-29T17:35:12.062Z,4.12
2019-04-29T17:37:41.808Z,4.33
2019-04-29T17:40:14.402Z,4.87
2019-04-29T17:42:45.899Z,4.03
2019-04-29T17:45:27.241Z,4.35
2019-04-29T17:48:18.208Z,7.35
2019-04-29T17:50:50.558Z,5.65
2019-04-29T17:53:28.621Z,4.15
2019-04-29T17:56:05.335Z,5.00
2019-04-29T17:58:39.563Z,4.75
2019-04-29T18:01:42.880Z,4.72
2019-04-29T18:04:42.658Z,4.78
2019-04-29T18:07:30.327Z,5.47
2019-04-29T18:10:24.520Z,5.13
2019-04-29T18:12:48.986Z,4.70
2019-04-29T18:15:20.574Z,4.47
2019-04-29T18:17:50.119Z,5.00
2019-04-29T18:20:36.999Z,4.62
2019-04-29T18:23:28.638Z,4.60
2019-04-29T18:26:02.061Z,5.30
2019-04-29T18:28:31.764Z,6.00
2019-04-29T18:31:01.649Z,5.33
2019-04-29T18:33:31.315Z,5.23
2019-04-29T18:36:04.387Z,5.00
2019-04-29T18:38:32.367Z,6.37
2019-04-29T18:41:01.896Z,7.15
2019-04-29T18:43:31.817Z,6.20
2019-04-29T18:46:06.301Z,5.30
2019-04-29T18:48:33.100Z,6.37
2019-04-29T18:51:02.920Z,7.12
2019-04-29T18:53:32.785Z,6.65
2019-04-29T18:56:02.335Z,6.78
2019-04-29T18:58:31.914Z,10.40
2019-04-29T19:01:01.472Z,7.63
2019-04-29T19:03:50.145Z,7.40
2019-04-29T19:06:20.160Z,8.20
2019-04-29T19:08:49.972Z,7.43
2019-04-29T19:11:29.935Z,9.33
2019-04-29T19:13:52.393Z,8.68
2019-04-29T19:16:23.268Z,7.95
2019-04-29T19:19:00.151Z,9.23
2019-04-29T19:21:30.494Z,9.10
2019-04-29T19:23:57.416Z,9.53
2019-04-29T19:26:27.640Z,10.07
2019-04-29T19:29:01.384Z,10.67
2019-04-29T19:31:29.406Z,10.97
2019-04-29T19:33:58.913Z,10.10
2019-04-29T19:36:28.482Z,11.50
2019-04-29T19:38:58.050Z,11.23
2019-04-29T19:41:27.725Z,11.00
2019-04-29T19:43:57.346Z,13.37
2019-04-29T19:46:36.841Z,13.47
2019-04-29T19:49:07.280Z,13.70
2019-04-29T19:51:29.399Z,13.03
2019-04-29T19:53:58.930Z,14.37
2019-04-29T19:56:28.645Z,13.80
2019-04-29T19:59:03.253Z,14.60
2019-04-29T20:01:32.221Z,14.50
2019-04-29T20:04:22.475Z,16.27
2019-04-29T20:06:51.223Z,17.13
2019-04-29T20:09:23.405Z,16.23
2019-04-29T20:11:55.467Z,16.47
2019-04-29T20:14:29.207Z,15.80
2019-04-29T20:17:18.672Z,16.27
2019-04-29T20:20:07.786Z,17.40
2019-04-29T20:22:43.025Z,16.60
2019-04-29T20:25:08.809Z,17.73
2019-04-29T20:27:38.763Z,18.43
2019-04-29T20:30:16.685Z,18.13
2019-04-29T20:32:39.827Z,18.13
2019-04-29T20:35:09.460Z,18.77
2019-04-29T20:37:39.294Z,17.77
2019-04-29T20:40:09.252Z,18.83
2019-04-29T20:42:40.459Z,18.30
2019-04-29T20:45:11.060Z,18.70
2019-04-29T20:47:42.209Z,19.17
2019-04-29T20:50:13.886Z,19.37
2019-04-29T20:52:59.079Z,19.10
2019-04-29T20:55:23.959Z,19.33
2019-04-29T20:57:54.089Z,18.30
2019-04-29T21:00:24.820Z,18.43
2019-04-29T21:02:55.633Z,17.73
2019-04-29T21:05:27.515Z,19.27
2019-04-29T21:08:02.939Z,18.97
2019-04-29T21:10:28.351Z,17.63
2019-04-29T21:13:20.256Z,18.33
2019-04-29T21:16:02.018Z,18.43
2019-04-29T21:18:31.594Z,18.67
2019-04-29T21:21:04.485Z,19.37
2019-04-29T21:23:35.555Z,18.63
2019-04-29T21:26:08.446Z,19.30
2019-04-29T21:28:41.225Z,19.30
2019-04-29T21:31:11.726Z,18.67
2019-04-29T21:33:39.133Z,17.97
2019-04-29T21:36:30.305Z,16.63
2019-04-29T21:39:06.069Z,15.17
2019-04-29T21:41:40.245Z,15.80
2019-04-29T21:44:09.787Z,15.87
2019-04-29T21:46:39.357Z,16.67
2019-04-29T21:49:11.681Z,16.40
2019-04-29T21:51:41.825Z,16.23
2019-04-29T21:54:14.336Z,16.13
2019-04-29T21:56:46.498Z,15.60
2019-04-29T21:59:13.446Z,16.93
2019-04-29T22:01:44.525Z,18.87
2019-04-29T22:04:14.633Z,19.03
2019-04-29T22:06:45.839Z,20.03
2019-04-29T22:09:16.377Z,20.10
2019-04-29T22:11:46.959Z,22.40
2019-04-29T22:14:16.650Z,23.07
2019-04-29T22:16:47.580Z,22.87
2019-04-29T22:19:17.695Z,24.23
2019-04-29T22:21:47.505Z,25.80
2019-04-29T22:24:17.582Z,23.27
2019-04-29T22:26:47.495Z,22.20
2019-04-29T22:29:17.023Z,21.90
2019-04-29T22:31:47.552Z,22.23
2019-04-29T22:34:19.042Z,21.40
2019-04-29T22:36:52.606Z,21.70
2019-04-29T22:39:21.694Z,23.87
2019-04-29T22:42:23.568Z,22.57
2019-04-29T22:44:57.351Z,22.90
2019-04-29T22:47:24.984Z,23.10
2019-04-29T22:49:54.502Z,22.97
2019-04-29T22:52:25.523Z,23.77
2019-04-29T22:54:57.943Z,23.83
2019-04-29T22:57:30.112Z,22.70
2019-04-29T22:59:57.757Z,25.97
2019-04-29T23:02:28.517Z,25.77
2019-04-29T23:04:58.364Z,25.20
2019-04-29T23:07:27.924Z,24.57
2019-04-29T23:09:57.938Z,25.77
2019-04-29T23:12:27.463Z,24.60
2019-04-29T23:14:58.596Z,25.33
2019-04-29T23:17:28.404Z,22.83
2019-04-29T23:20:05.172Z,23.70
2019-04-29T23:22:41.598Z,22.67
2019-04-29T23:25:17.500Z,22.30
2019-04-29T23:27:48.528Z,21.50
2019-04-29T23:30:22.342Z,22.40
2019-04-29T23:32:51.807Z,20.40
2019-04-29T23:35:21.349Z,20.67
2019-04-29T23:37:51.195Z,21.03
2019-04-29T23:40:20.821Z,21.47
2019-04-29T23:42:50.365Z,22.07
2019-04-29T23:45:22.329Z,21.23
2019-04-29T23:47:51.425Z,21.73
2019-04-29T23:50:21.171Z,23.20
2019-04-29T23:52:51.981Z,22.73
2019-04-29T23:55:27.412Z,23.83
2019-04-29T23:58:03.811Z,25.30
